Time;durP1;ratioP1;P1;durP2;ratioP2;P2;SDS_P1;SDS_P2;PMS_P1;PMS_P2;Temp;Humidity;BMP_temperature;BMP_pressure;BME280_temperature;BME280_humidity;BME280_pressure;Samples;Min_cycle;Max_cycle;Signal;HPM_P1;HPM_P2
2021/10/19 00:01:04;;;;;;;;;64.00;53.00;;;;;2.06;100.00;100765.09;6278879;20;2500250;-41
2021/10/19 00:03:34;;;;;;;;;75.67;56.00;;;;;2.03;100.00;100769.50;6285999;20;2872595;-41
2021/10/19 00:06:04;;;;;;;;;70.50;55.00;;;;;2.00;100.00;100769.53;6314893;20;2876349;-40
2021/10/19 00:08:32;;;;;;;;;71.00;54.50;;;;;2.07;100.00;100766.81;6284662;20;2864868;-41
2021/10/19 00:11:02;;;;;;;;;69.67;51.67;;;;;2.26;100.00;100767.53;6284478;20;2882637;-41
2021/10/19 00:13:32;;;;;;;;;66.50;55.00;;;;;2.13;100.00;100761.50;6316850;20;2871366;-42
2021/10/19 00:16:01;;;;;;;;;65.00;47.67;;;;;2.00;100.00;100765.13;6284578;20;2869278;-41
2021/10/19 00:18:31;;;;;;;;;65.00;51.50;;;;;2.05;100.00;100762.44;6314870;20;2867972;-42
2021/10/19 00:20:59;;;;;;;;;65.00;52.00;;;;;1.71;100.00;100754.78;6284644;20;2751279;-40
2021/10/19 00:23:29;;;;;;;;;73.00;55.00;;;;;1.40;100.00;100755.03;6313550;20;2877466;-41
2021/10/19 00:25:58;;;;;;;;;63.50;48.50;;;;;1.46;100.00;100762.06;6314481;20;2874331;-41
2021/10/19 00:28:27;;;;;;;;;70.00;55.50;;;;;1.62;100.00;100765.47;6284257;20;2864880;-44
2021/10/19 00:30:55;;;;;;;;;71.50;57.50;;;;;1.39;100.00;100760.31;6281037;20;2500358;-41
2021/10/19 00:33:24;;;;;;;;;70.00;53.33;;;;;1.56;100.00;100768.16;6283496;20;2878367;-41
2021/10/19 00:35:53;;;;;;;;;55.00;49.00;;;;;1.82;100.00;100758.25;6311261;20;2500339;-41
2021/10/19 00:38:22;;;;;;;;;65.75;52.00;;;;;2.08;100.00;100767.69;6282581;20;3616941;-41
2021/10/19 00:40:52;;;;;;;;;76.00;58.00;;;;;1.61;100.00;100766.38;6314603;20;3630593;-42
2021/10/19 00:43:23;;;;;;;;;74.33;57.00;;;;;1.92;100.00;100762.56;6314741;20;2876494;-41
2021/10/19 00:45:55;;;;;;;;;77.00;58.00;;;;;1.94;100.00;100758.13;6311391;20;3642014;-40
2021/10/19 00:48:26;;;;;;;;;80.00;61.00;;;;;2.02;100.00;100762.47;6313059;20;3639916;-41
2021/10/19 00:50:56;;;;;;;;;83.00;62.00;;;;;1.92;100.00;100761.66;6315031;20;3655593;-41
2021/10/19 00:53:27;;;;;;;;;95.00;68.67;;;;;1.81;100.00;100756.47;6311987;20;3649214;-41
2021/10/19 00:55:56;;;;;;;;;101.00;74.67;;;;;1.73;100.00;100767.13;6315552;20;3678360;-42
2021/10/19 00:58:26;;;;;;;;;121.67;93.00;;;;;1.70;100.00;100759.22;6281139;20;3692994;-40
2021/10/19 01:00:56;;;;;;;;;106.33;81.00;;;;;1.52;100.00;100757.56;6283498;20;3691902;-42
2021/10/19 01:03:28;;;;;;;;;108.33;84.33;;;;;1.70;100.00;100767.16;6283376;20;3685621;-41
2021/10/19 01:06:02;;;;;;;;;108.33;92.67;;;;;2.26;100.00;100767.53;6281068;20;3681602;-41
2021/10/19 01:08:32;;;;;;;;;85.33;63.00;;;;;2.19;100.00;100763.19;6282546;20;3635701;-40
2021/10/19 01:11:05;;;;;;;;;97.33;71.00;;;;;1.93;100.00;100758.16;6312185;20;3666914;-41
2021/10/19 01:13:35;;;;;;;;;97.00;69.67;;;;;1.94;100.00;100759.88;6281430;20;3659586;-41
2021/10/19 01:16:11;;;;;;;;;88.00;64.00;;;;;1.73;100.00;100753.88;6312806;20;3663856;-41
2021/10/19 01:18:43;;;;;;;;;97.67;69.00;;;;;2.04;100.00;100758.03;6282487;20;3662778;-41
2021/10/19 01:21:12;;;;;;;;;74.50;59.00;;;;;2.35;100.00;100756.84;6279394;20;2879464;-40
2021/10/19 01:23:42;;;;;;;;;70.67;52.33;;;;;2.28;100.00;100754.28;6280498;20;2888941;-41
2021/10/19 01:26:11;;;;;;;;;66.00;50.67;;;;;1.98;100.00;100757.22;6314351;20;2869224;-41
2021/10/19 01:28:42;;;;;;;;;63.50;48.50;;;;;1.70;100.00;100760.97;6312237;20;2864901;-42
2021/10/19 01:31:13;;;;;;;;;52.00;43.50;;;;;1.62;100.00;100752.22;6282344;20;2865995;-41
2021/10/19 01:33:43;;;;;;;;;62.33;45.00;;;;;2.14;100.00;100746.47;6283220;20;2869130;-41
2021/10/19 01:36:12;;;;;;;;;55.33;41.00;;;;;2.27;100.00;100750.75;6313079;20;3628420;-40
2021/10/19 01:38:41;;;;;;;;;58.50;46.00;;;;;1.90;100.00;100758.19;6310878;20;2848198;-40
2021/10/19 01:41:11;;;;;;;;;43.33;40.00;;;;;1.69;100.00;100759.25;6279691;20;2878568;-42
2021/10/19 01:43:42;;;;;;;;;63.33;46.00;;;;;2.22;100.00;100759.66;6314428;20;2876340;-46
2021/10/19 01:46:11;;;;;;;;;60.33;43.00;;;;;2.40;100.00;100762.09;6312816;20;2860808;-48
2021/10/19 01:48:41;;;;;;;;;54.00;43.00;;;;;2.30;100.00;100763.97;6313081;20;2856654;-45
2021/10/19 01:51:09;;;;;;;;;66.00;54.00;;;;;2.40;100.00;100755.03;6278918;20;2500294;-47
2021/10/19 01:53:38;;;;;;;;;75.00;58.50;;;;;2.36;100.00;100749.75;6279556;20;2875238;-46
2021/10/19 01:56:09;;;;;;;;;70.00;48.67;;;;;1.95;100.00;100753.72;6279996;20;2875421;-48
2021/10/19 01:58:38;;;;;;;;;65.00;50.50;;;;;1.76;100.00;100755.63;6309304;20;2861697;-46
2021/10/19 02:01:07;;;;;;;;;67.00;49.50;;;;;1.61;100.00;100761.94;6278750;20;2863821;-46
2021/10/19 02:03:35;;;;;;;;;60.50;48.50;;;;;1.45;100.00;100761.19;6280032;20;2866912;-45
2021/10/19 02:06:06;;;;;;;;;62.00;49.00;;;;;1.36;100.00;100755.94;6279381;20;2870099;-46
2021/10/19 02:08:35;;;;;;;;;65.00;50.00;;;;;1.34;100.00;100757.69;6275418;20;2500233;-47
2021/10/19 02:11:05;;;;;;;;;83.67;63.67;;;;;1.33;100.00;100755.97;6278987;20;2892278;-47
2021/10/19 02:13:35;;;;;;;;;67.67;49.33;;;;;1.29;100.00;100759.50;6310029;20;2875251;-50
2021/10/19 02:16:05;;;;;;;;;66.33;48.00;;;;;1.37;100.00;100757.72;6309176;20;3624263;-46
2021/10/19 02:18:34;;;;;;;;;77.00;55.00;;;;;1.18;100.00;100754.28;6311910;20;3638798;-47
2021/10/19 02:21:04;;;;;;;;;68.33;54.00;;;;;1.28;100.00;100757.75;6309985;20;2878898;-46
2021/10/19 02:23:33;;;;;;;;;79.67;59.33;;;;;1.35;100.00;100754.19;6310154;20;3647192;-46
2021/10/19 02:26:03;;;;;;;;;76.67;59.00;;;;;1.39;100.00;100763.84;6312595;20;2880583;-47
2021/10/19 02:28:33;;;;;;;;;76.33;58.33;;;;;1.28;100.00;100763.91;6310022;20;2889939;-46
2021/10/19 02:31:04;;;;;;;;;73.00;53.33;;;;;1.39;100.00;100766.50;6312186;20;3642005;-48
2021/10/19 02:33:34;;;;;;;;;71.67;53.33;;;;;1.85;100.00;100771.44;6313110;20;2889959;-47
2021/10/19 02:36:03;;;;;;;;;51.00;30.50;;;;;1.48;100.00;100771.72;6312914;20;2834685;-49
2021/10/19 02:38:32;;;;;;;;;66.33;53.00;;;;;1.40;100.00;100770.91;6277637;20;2871123;-45
2021/10/19 02:41:02;;;;;;;;;69.33;51.67;;;;;1.10;100.00;100770.19;6310482;20;2885806;-47
2021/10/19 02:43:31;;;;;;;;;65.00;52.50;;;;;1.30;100.00;100771.84;6311757;20;2861759;-46
2021/10/19 02:45:59;;;;;;;;;65.00;54.00;;;;;1.23;100.00;100770.13;6279752;20;2869000;-47
2021/10/19 02:48:29;;;;;;;;;64.67;47.33;;;;;1.29;100.00;100764.78;6278684;20;2882534;-47
2021/10/19 02:50:58;;;;;;;;;69.50;53.50;;;;;1.74;100.00;100760.94;6309791;20;2857564;-46
2021/10/19 02:53:27;;;;;;;;;68.67;50.67;;;;;1.71;100.00;100757.44;6279913;20;2890201;-45
2021/10/19 02:55:57;;;;;;;;;61.33;47.33;;;;;1.68;100.00;100758.34;6311557;20;2865994;-47
2021/10/19 02:58:26;;;;;;;;;65.00;48.50;;;;;1.72;100.00;100751.25;6310407;20;2867330;-46
2021/10/19 03:00:54;;;;;;;;;73.00;54.50;;;;;1.66;100.00;100748.66;6278932;20;2874341;-45
2021/10/19 03:03:23;;;;;;;;;69.50;52.50;;;;;1.67;100.00;100766.31;6280736;20;2875373;-47
2021/10/19 03:05:52;;;;;;;;;54.00;47.50;;;;;1.78;100.00;100763.56;6280324;20;2861109;-47
2021/10/19 03:08:22;;;;;;;;;67.00;53.67;;;;;1.78;100.00;100768.88;6279383;20;2877360;-48
2021/10/19 03:10:52;;;;;;;;;75.33;59.00;;;;;1.87;100.00;100774.97;6312368;20;2890100;-46
2021/10/19 03:13:21;;;;;;;;;74.00;58.50;;;;;1.68;100.00;100768.91;6310718;20;2873169;-46
2021/10/19 03:16:10;;;;;;;;;76.67;57.33;;;;;1.79;100.00;100779.47;6278139;20;3649331;-45
2021/10/19 03:18:40;;;;;;;;;72.67;55.00;;;;;2.03;100.00;100783.66;6307923;20;2879649;-46
2021/10/19 03:21:09;;;;;;;;;61.00;50.50;;;;;2.10;100.00;100787.13;6309229;20;2862734;-46
2021/10/19 03:23:39;;;;;;;;;58.67;41.67;;;;;1.90;100.00;100790.84;6279317;20;2875277;-46
2021/10/19 03:26:07;;;;;;;;;65.50;52.00;;;;;1.81;100.00;100793.53;6308304;20;2848162;-47
2021/10/19 03:28:35;;;;;;;;;64.50;49.00;;;;;1.86;100.00;100793.50;6278792;20;2492960;-47
2021/10/19 03:31:04;;;;;;;;;56.00;46.00;;;;;1.71;100.00;100791.84;6285280;20;2854563;-47
2021/10/19 03:33:33;;;;;;;;;68.50;50.00;;;;;2.11;100.00;100804.78;6286571;20;2864865;-45
2021/10/19 03:36:04;;;;;;;;;61.00;49.00;;;;;1.47;100.00;100809.66;6284842;20;2863934;-47
2021/10/19 03:38:42;;;;;;;;;72.50;53.50;;;;;1.69;100.00;100802.47;6283349;20;2877386;-46
2021/10/19 03:41:10;;;;;;;;;76.50;57.50;;;;;1.37;100.00;100815.91;6276717;20;2500327;-46
2021/10/19 03:43:39;;;;;;;;;74.67;57.00;;;;;1.41;100.00;100811.47;6284655;20;3631515;-46
2021/10/19 03:46:09;;;;;;;;;71.00;56.67;;;;;1.48;100.00;100808.78;6317033;20;2879431;-47
2021/10/19 03:48:38;;;;;;;;;72.33;58.33;;;;;1.60;100.00;100802.50;6314277;20;2867967;-48
2021/10/19 03:51:08;;;;;;;;;67.33;51.33;;;;;1.32;100.00;100796.53;6315707;20;2878573;-46
2021/10/19 03:53:37;;;;;;;;;64.00;42.67;;;;;1.10;100.00;100798.41;6316134;20;3633546;-46
2021/10/19 03:56:07;;;;;;;;;69.67;51.33;;;;;1.19;100.00;100792.22;6316177;20;2877327;-48
2021/10/19 03:58:36;;;;;;;;;68.00;52.00;;;;;1.18;100.00;100798.38;6314610;20;2873153;-46
2021/10/19 04:01:05;;;;;;;;;54.50;43.00;;;;;1.21;100.00;100801.00;6282769;20;2862775;-50
2021/10/19 04:03:34;;;;;;;;;69.00;50.00;;;;;1.17;100.00;100796.63;6284714;20;2864963;-47
2021/10/19 04:06:03;;;;;;;;;74.00;53.00;;;;;1.08;100.00;100793.13;6285158;20;2878392;-46
2021/10/19 04:08:32;;;;;;;;;67.00;53.00;;;;;1.05;100.00;100808.13;6281868;20;2853426;-49
2021/10/19 04:11:00;;;;;;;;;66.00;49.00;;;;;1.27;100.00;100804.50;6282386;20;2500255;-47
2021/10/19 04:13:28;;;;;;;;;57.00;48.00;;;;;1.35;100.00;100801.81;6282421;20;2850324;-47
2021/10/19 04:15:57;;;;;;;;;69.00;51.00;;;;;1.59;100.00;100799.91;6282794;20;2868135;-46
2021/10/19 04:18:27;;;;;;;;;65.33;48.33;;;;;1.34;100.00;100799.16;6284266;20;2878422;-46
2021/10/19 04:20:56;;;;;;;;;71.50;53.00;;;;;1.03;100.00;100804.63;6314475;20;2863787;-46
2021/10/19 04:23:24;;;;;;;;;60.50;50.00;;;;;1.28;100.00;100805.38;6281731;20;2863839;-46
2021/10/19 04:25:55;;;;;;;;;65.67;49.00;;;;;1.70;100.00;100804.22;6282305;20;2878624;-47
2021/10/19 04:28:24;;;;;;;;;62.00;48.50;;;;;1.67;100.00;100811.31;6313182;20;2861757;-47
2021/10/19 04:30:53;;;;;;;;;64.67;48.00;;;;;1.64;100.00;100814.84;6284141;20;2881524;-47
2021/10/19 04:33:23;;;;;;;;;65.67;49.00;;;;;1.36;100.00;100805.31;6316984;20;2866976;-48
2021/10/19 04:35:52;;;;;;;;;66.00;48.50;;;;;1.53;100.00;100807.00;6314531;20;2874767;-46
2021/10/19 04:38:22;;;;;;;;;63.67;48.00;;;;;1.44;100.00;100806.16;6281065;20;2892076;-47
2021/10/19 04:40:51;;;;;;;;;65.33;47.33;;;;;1.28;100.00;100810.66;6313596;20;3623165;-48
2021/10/19 04:43:21;;;;;;;;;66.33;50.00;;;;;1.62;100.00;100806.03;6311581;20;2873657;-47
2021/10/19 04:45:53;;;;;;;;;62.00;48.00;;;;;1.49;100.00;100805.22;6314679;20;2877935;-47
2021/10/19 04:48:23;;;;;;;;;69.33;51.67;;;;;1.37;100.00;100800.03;6281877;20;3623166;-46
2021/10/19 04:50:52;;;;;;;;;64.00;48.00;;;;;1.93;100.00;100805.81;6315374;20;2853366;-47
2021/10/19 04:53:21;;;;;;;;;61.00;46.00;;;;;1.87;100.00;100809.41;6283952;20;2875277;-46
2021/10/19 04:55:50;;;;;;;;;66.00;52.00;;;;;1.18;100.00;100803.66;6283634;20;2872204;-46
2021/10/19 04:58:24;;;;;;;;;108.67;83.67;;;;;0.87;100.00;100809.09;6283236;20;3695141;-46
2021/10/19 05:00:55;;;;;;;;;149.00;110.00;;;;;0.88;100.00;100813.50;6284073;20;4492930;-46
2021/10/19 05:03:25;;;;;;;;;99.67;73.67;;;;;0.77;100.00;100804.72;6282932;20;3683584;-46
2021/10/19 05:05:55;;;;;;;;;92.33;68.00;;;;;0.78;100.00;100804.72;6281034;20;3658580;-46
2021/10/19 05:08:24;;;;;;;;;94.67;68.00;;;;;1.40;100.00;100810.59;6313462;20;3642986;-45
2021/10/19 05:10:59;;;;;;;;;91.67;71.67;;;;;1.38;100.00;100803.56;6314880;20;3638769;-46
2021/10/19 05:13:28;;;;;;;;;94.33;68.00;;;;;1.14;100.00;100804.56;6314458;20;3660649;-47
2021/10/19 05:15:58;;;;;;;;;86.00;62.67;;;;;1.08;100.00;100809.00;6314315;20;3659616;-45
2021/10/19 05:18:28;;;;;;;;;92.67;67.33;;;;;1.26;100.00;100813.34;6313865;20;3635228;-46
2021/10/19 05:20:58;;;;;;;;;85.00;65.00;;;;;1.09;100.00;100821.34;6312918;20;3638774;-46
2021/10/19 05:23:28;;;;;;;;;90.00;63.67;;;;;1.20;100.00;100809.81;6312653;20;3661754;-46
2021/10/19 05:25:59;;;;;;;;;72.00;57.33;;;;;1.27;100.00;100804.50;6278775;20;2888006;-46
2021/10/19 05:28:28;;;;;;;;;79.00;58.00;;;;;1.39;100.00;100814.13;6313980;20;3634599;-46
2021/10/19 05:30:57;;;;;;;;;69.50;57.00;;;;;1.71;100.00;100811.28;6310574;20;2872211;-46
2021/10/19 05:33:27;;;;;;;;;77.67;59.00;;;;;1.51;100.00;100823.75;6283814;20;2863799;-45
2021/10/19 05:35:57;;;;;;;;;79.67;61.67;;;;;1.35;100.00;100822.97;6313113;20;2885660;-45
2021/10/19 05:38:26;;;;;;;;;85.67;63.67;;;;;1.44;100.00;100822.91;6311418;20;3646058;-46
2021/10/19 05:40:56;;;;;;;;;72.67;54.67;;;;;1.38;100.00;100838.81;6313875;20;3629483;-45
2021/10/19 05:43:26;;;;;;;;;72.67;57.00;;;;;1.61;100.00;100829.88;6313144;20;2883720;-46
2021/10/19 05:45:56;;;;;;;;;77.00;59.00;;;;;1.78;100.00;100833.28;6310028;20;2884120;-46
2021/10/19 05:48:26;;;;;;;;;77.00;57.33;;;;;2.06;100.00;100833.09;6308134;20;3614882;-46
2021/10/19 05:50:55;;;;;;;;;71.67;54.00;;;;;2.43;100.00;100830.97;6312075;20;3630493;-47
2021/10/19 05:53:23;;;;;;;;;70.00;55.00;;;;;2.53;100.00;100845.03;6308058;20;2500362;-46
2021/10/19 05:55:53;;;;;;;;;75.33;58.67;;;;;2.50;100.00;100831.78;6281514;20;2879565;-47
2021/10/19 05:58:23;;;;;;;;;83.67;63.33;;;;;2.62;100.00;100839.63;6311064;20;3644057;-46
2021/10/19 06:00:53;;;;;;;;;81.67;60.00;;;;;2.83;100.00;100839.38;6314087;20;3647155;-45
2021/10/19 06:03:22;;;;;;;;;79.33;58.67;;;;;2.95;100.00;100843.69;6309873;20;3633583;-47
2021/10/19 06:05:56;;;;;;;;;84.33;64.00;;;;;3.07;100.00;100846.16;6313358;20;3650245;-46
2021/10/19 06:08:26;;;;;;;;;91.67;67.00;;;;;3.30;100.00;100848.53;6311797;20;3651321;-46
2021/10/19 06:10:56;;;;;;;;;95.33;73.00;;;;;3.59;100.00;100847.25;6281345;20;3661727;-48
2021/10/19 06:13:26;;;;;;;;;97.00;71.67;;;;;3.52;100.00;100854.41;6313560;20;3662717;-45
2021/10/19 06:15:56;;;;;;;;;87.00;62.00;;;;;3.51;100.00;100870.38;6279541;20;3654412;-45
2021/10/19 06:18:26;;;;;;;;;84.00;62.00;;;;;3.40;100.00;100864.34;6312305;20;3666929;-45
2021/10/19 06:20:55;;;;;;;;;79.00;60.67;;;;;4.12;100.00;100869.47;6311193;20;3638848;-47
2021/10/19 06:23:25;;;;;;;;;97.00;75.00;;;;;4.01;100.00;100863.44;6310658;20;3672126;-48
2021/10/19 06:25:57;;;;;;;;;144.50;116.50;;;;;4.33;100.00;100860.25;6278895;20;4496045;-49
2021/10/19 06:28:25;;;;;;;;;140.00;116.00;;;;;4.24;100.00;100862.19;6307030;20;1951363;-46
2021/10/19 06:30:55;;;;;;;;;135.00;112.25;;;;;6.73;97.21;100853.25;6279236;20;4476352;-46
2021/10/19 06:33:25;;;;;;;;;97.00;74.67;;;;;11.92;70.12;100855.28;6282068;20;3688851;-46
2021/10/19 06:35:55;;;;;;;;;87.33;71.33;;;;;14.09;61.41;100868.19;6280387;20;3666001;-49
2021/10/19 06:38:25;;;;;;;;;66.33;52.00;;;;;15.05;59.06;100867.00;6279405;20;3626326;-47
2021/10/19 06:40:54;;;;;;;;;59.00;45.00;;;;;14.49;59.54;100859.47;6311968;20;3614853;-48
2021/10/19 06:43:24;;;;;;;;;53.00;41.67;;;;;16.29;55.08;100864.50;6309747;20;2839883;-48
2021/10/19 06:45:54;;;;;;;;;48.67;37.00;;;;;15.97;55.12;100864.78;6311316;20;3637919;-47
2021/10/19 06:48:23;;;;;;;;;52.00;39.67;;;;;16.54;53.74;100871.88;6279104;20;3610750;-49
2021/10/19 06:50:52;;;;;;;;;54.67;42.33;;;;;16.25;56.13;100873.81;6315919;20;3616996;-50
2021/10/19 06:53:22;;;;;;;;;72.67;56.00;;;;;14.98;57.28;100871.94;6279442;20;3634009;-48
2021/10/19 06:55:52;;;;;;;;;69.00;54.33;;;;;8.71;78.97;100865.00;6278767;20;3625261;-47
2021/10/19 06:58:21;;;;;;;;;76.00;56.50;;;;;8.01;87.77;100861.06;6313142;20;3647249;-46
2021/10/19 07:00:51;;;;;;;;;66.67;53.67;;;;;8.29;89.21;100871.75;6314472;20;3616978;-46
2021/10/19 07:03:23;;;;;;;;;67.67;53.33;;;;;8.62;89.31;100871.53;6281178;20;3626258;-49
2021/10/19 07:05:54;;;;;;;;;63.00;50.00;;;;;8.64;90.40;100871.50;6318868;20;3613851;-48
2021/10/19 07:08:23;;;;;;;;;60.00;46.67;;;;;8.94;89.00;100875.75;6316422;20;2874270;-48
2021/10/19 07:10:54;;;;;;;;;66.67;53.00;;;;;8.81;90.41;100877.13;6317538;20;3624232;-49
2021/10/19 07:13:24;;;;;;;;;66.33;52.33;;;;;9.08;89.50;100880.63;6317432;20;3621167;-41
2021/10/19 07:15:55;;;;;;;;;64.67;52.00;;;;;9.16;88.79;100888.38;6319591;20;3629424;-42
2021/10/19 07:18:26;;;;;;;;;73.67;56.67;;;;;9.72;87.86;100881.84;6282972;20;3651423;-42
2021/10/19 07:20:56;;;;;;;;;69.33;53.33;;;;;9.58;88.97;100890.41;6317988;20;3629455;-41
2021/10/19 07:23:25;;;;;;;;;70.00;55.00;;;;;9.82;87.78;100886.78;6315381;20;3623298;-42
2021/10/19 07:25:55;;;;;;;;;70.33;53.67;;;;;9.65;88.59;100889.22;6316306;20;3640896;-43
2021/10/19 07:28:25;;;;;;;;;66.67;48.67;;;;;9.35;90.61;100902.00;6282788;20;3626419;-42
2021/10/19 07:30:55;;;;;;;;;70.50;54.00;;;;;9.90;89.38;100899.91;6318626;20;3630503;-42
2021/10/19 07:33:25;;;;;;;;;71.00;53.50;;;;;10.24;87.23;100912.84;6318243;20;3640967;-42
2021/10/19 07:35:54;;;;;;;;;66.33;53.67;;;;;10.28;87.47;100913.63;6319137;20;3627327;-43
2021/10/19 07:38:28;;;;;;;;;73.00;54.33;;;;;10.56;85.90;100913.38;6285400;20;3627324;-42
2021/10/19 07:40:58;;;;;;;;;65.67;51.00;;;;;10.32;87.46;100913.44;6315997;20;3645123;-41
2021/10/19 07:43:27;;;;;;;;;61.67;48.67;;;;;11.09;85.87;100912.88;6281654;20;3631464;-41
2021/10/19 07:45:57;;;;;;;;;59.00;46.33;;;;;11.23;83.53;100914.06;6315842;20;2864954;-42
2021/10/19 07:48:26;;;;;;;;;52.67;42.67;;;;;10.90;84.20;100911.91;6316571;20;2860858;-42
2021/10/19 07:50:56;;;;;;;;;55.67;45.67;;;;;10.93;85.59;100919.84;6316284;20;3607535;-41
2021/10/19 07:53:25;;;;;;;;;44.33;37.00;;;;;11.67;82.22;100936.25;6318205;20;3606500;-41
2021/10/19 07:55:55;;;;;;;;;43.67;35.33;;;;;11.70;81.17;100936.13;6284617;20;3607564;-41
2021/10/19 07:58:24;;;;;;;;;44.00;38.00;;;;;11.71;81.45;100931.59;6315493;20;3615861;-42
2021/10/19 08:00:54;;;;;;;;;50.67;36.00;;;;;11.97;79.22;100930.41;6289084;20;3610662;-42
2021/10/19 08:03:24;;;;;;;;;45.25;34.00;;;;;12.38;79.81;100928.44;6284465;20;3638792;-43
2021/10/19 08:05:53;;;;;;;;;38.67;33.00;;;;;12.25;77.52;100938.06;6320962;20;3602316;-41
2021/10/19 08:08:22;;;;;;;;;29.33;29.33;;;;;12.60;76.64;100933.59;6286184;20;3585624;-42
2021/10/19 08:10:51;;;;;;;;;41.00;34.33;;;;;12.84;76.37;100928.81;6287222;20;3611717;-42
2021/10/19 08:13:19;;;;;;;;;38.00;35.00;;;;;13.00;74.51;100936.97;6283876;20;2839819;-42
2021/10/19 08:15:50;;;;;;;;;41.00;35.00;;;;;12.92;74.96;100945.44;6284477;20;3589155;-43
2021/10/19 08:18:19;;;;;;;;;42.00;36.00;;;;;13.25;74.35;100944.66;6286266;20;3609597;-42
2021/10/19 08:20:48;;;;;;;;;39.00;34.00;;;;;13.16;73.02;100945.13;6286465;20;2759626;-42
2021/10/19 08:23:17;;;;;;;;;39.00;34.00;;;;;13.06;72.89;100946.56;6281924;20;3610630;-42
2021/10/19 08:25:46;;;;;;;;;39.33;33.67;;;;;13.37;73.34;100941.34;6318338;20;3608584;-44
2021/10/19 08:28:25;;;;;;;;;33.00;31.67;;;;;13.55;72.17;100944.88;6286688;20;3599346;-42
2021/10/19 08:30:53;;;;;;;;;34.00;29.00;;;;;13.47;70.77;100935.47;6284770;20;3614883;-43
2021/10/19 08:33:22;;;;;;;;;34.67;32.00;;;;;13.42;71.58;100932.16;6287156;20;3579420;-42
2021/10/19 08:35:52;;;;;;;;;36.33;30.00;;;;;13.25;71.37;100931.19;6283278;20;3620003;-42
2021/10/19 08:38:21;;;;;;;;;35.33;31.00;;;;;13.52;69.38;100936.09;6316504;20;3606462;-44
2021/10/19 08:40:51;;;;;;;;;30.33;28.00;;;;;13.73;69.61;100937.63;6283107;20;3599214;-42
2021/10/19 08:43:20;;;;;;;;;39.00;33.00;;;;;13.53;68.41;100935.13;6318792;20;3603366;-42
2021/10/19 08:45:52;;;;;;;;;36.33;32.00;;;;;13.63;68.70;100933.69;6282031;20;3598147;-43
2021/10/19 08:48:21;;;;;;;;;31.00;26.67;;;;;13.76;67.56;100932.06;6280635;20;3602291;-43
2021/10/19 08:50:50;;;;;;;;;40.67;32.67;;;;;13.77;68.56;100917.63;6315305;20;3599184;-43
2021/10/19 08:53:19;;;;;;;;;28.33;25.67;;;;;13.90;65.87;100906.13;6282993;20;3598136;-45
2021/10/19 08:55:48;;;;;;;;;33.00;25.67;;;;;14.15;66.55;100909.19;6317391;20;3627446;-43
2021/10/19 08:58:18;;;;;;;;;26.00;25.67;;;;;13.99;66.14;100906.50;6281134;20;2848238;-42
2021/10/19 09:00:47;;;;;;;;;23.00;21.00;;;;;14.10;66.65;100905.00;6319019;20;3570052;-42
2021/10/19 09:03:22;;;;;;;;;28.33;24.00;;;;;14.28;65.83;100909.38;6316926;20;3587734;-42
2021/10/19 09:05:51;;;;;;;;;20.00;19.00;;;;;14.06;63.70;100907.03;6280895;20;2835811;-43
2021/10/19 09:08:20;;;;;;;;;17.67;14.67;;;;;13.76;63.80;100915.84;6282311;20;3541891;-42
2021/10/19 09:10:48;;;;;;;;;27.50;21.00;;;;;13.80;63.55;100912.03;6284968;20;2853376;-42
2021/10/19 09:13:19;;;;;;;;;25.00;22.50;;;;;14.02;62.60;100903.59;6282381;20;2838982;-41
2021/10/19 09:15:50;;;;;;;;;27.50;22.00;;;;;13.93;63.01;100908.66;6284570;20;2848187;-42
2021/10/19 09:18:22;;;;;;;;;24.50;20.50;;;;;14.03;62.95;100902.66;6277320;20;2500813;-42
2021/10/19 09:20:55;;;;;;;;;23.00;22.33;;;;;13.59;63.28;100907.84;6281556;20;2848269;-43
2021/10/19 09:23:28;;;;;;;;;24.33;23.33;;;;;13.78;62.70;100903.16;6314237;20;3580461;-42
2021/10/19 09:25:58;;;;;;;;;20.00;18.00;;;;;13.91;61.90;100902.47;6280148;20;2824254;-42
2021/10/19 09:28:39;;;;;;;;;27.00;26.00;;;;;14.02;62.72;100902.75;6282397;20;2839878;-44
2021/10/19 09:31:08;;;;;;;;;27.33;24.33;;;;;13.83;62.59;100894.81;6286734;20;3586706;-42
2021/10/19 09:33:37;;;;;;;;;27.00;22.50;;;;;14.02;62.14;100913.53;6283982;20;2839889;-42
2021/10/19 09:36:08;;;;;;;;;30.33;23.33;;;;;14.05;62.68;100908.81;6283554;20;3581535;-41
2021/10/19 09:38:49;;;;;;;;;23.00;20.00;;;;;14.28;62.90;100901.25;6281518;20;2829425;-42
2021/10/19 09:41:19;;;;;;;;;26.00;25.33;;;;;14.40;61.62;100905.97;6282227;20;2841996;-42
2021/10/19 09:43:47;;;;;;;;;28.00;24.00;;;;;14.37;61.10;100905.25;6315280;20;3580456;-41
2021/10/19 09:46:22;;;;;;;;;23.33;21.67;;;;;14.28;60.91;100906.66;6280981;20;2837822;-41
2021/10/19 09:48:52;;;;;;;;;24.00;23.00;;;;;14.14;62.44;100899.34;6312226;20;3574210;-42
2021/10/19 09:51:22;;;;;;;;;22.67;18.67;;;;;14.28;60.56;100896.72;6279878;20;2839912;-41
2021/10/19 09:53:53;;;;;;;;;22.67;21.00;;;;;14.47;60.40;100887.53;6316449;20;3563816;-42
2021/10/19 09:56:21;;;;;;;;;22.00;19.50;;;;;14.60;61.40;100896.72;6312352;20;2831494;-41
2021/10/19 09:58:50;;;;;;;;;25.00;21.00;;;;;14.17;61.96;100899.19;6278089;20;2837859;-42
2021/10/19 10:01:19;;;;;;;;;23.33;21.00;;;;;14.52;61.05;100904.38;6285742;20;3578432;-44
2021/10/19 10:03:51;;;;;;;;;25.50;23.00;;;;;14.54;61.60;100907.88;6280020;20;2842967;-43
2021/10/19 10:06:21;;;;;;;;;23.00;20.50;;;;;14.72;61.79;100905.94;6279941;20;2828467;-44
2021/10/19 10:08:50;;;;;;;;;19.00;18.00;;;;;15.08;60.97;100901.97;6277177;20;2491933;-43
2021/10/19 10:11:21;;;;;;;;;20.50;19.50;;;;;14.88;60.66;100884.25;6279097;20;2836710;-42
2021/10/19 10:14:02;;;;;;;;;27.00;24.50;;;;;14.74;61.33;100892.31;6280413;20;2850241;-45
2021/10/19 10:16:52;;;;;;;;;23.67;20.67;;;;;14.92;60.49;100885.81;6281045;20;2848298;-43
2021/10/19 10:19:22;;;;;;;;;18.00;17.00;;;;;15.19;60.25;100888.66;6311164;20;3563877;-41
2021/10/19 10:21:53;;;;;;;;;12.67;11.67;;;;;14.95;59.10;100891.03;6313170;20;3512849;-43
2021/10/19 10:24:32;;;;;;;;;15.67;14.33;;;;;15.36;58.58;100887.63;6309628;20;3539890;-43
2021/10/19 10:27:13;;;;;;;;;20.50;17.50;;;;;15.19;59.22;100885.06;6281676;20;2837765;-43
2021/10/19 10:29:48;;;;;;;;;17.00;14.00;;;;;15.48;58.06;100877.84;6285225;20;2810699;-40
2021/10/19 10:32:39;;;;;;;;;14.00;12.00;;;;;15.02;57.89;100870.75;6283398;20;2778469;-40
2021/10/19 10:35:10;;;;;;;;;14.00;12.00;;;;;15.25;56.47;100876.59;6313778;20;3519181;-40
2021/10/19 10:37:48;;;;;;;;;18.33;13.67;;;;;15.30;57.24;100879.91;6310381;20;3549257;-39
2021/10/19 10:40:38;;;;;;;;;11.00;11.00;;;;;15.30;56.07;100875.34;6312997;20;3519006;-40
2021/10/19 10:43:32;;;;;;;;;17.50;13.00;;;;;15.53;56.76;100883.84;6314270;20;2811864;-39
2021/10/19 10:46:12;;;;;;;;;18.33;16.00;;;;;15.30;56.51;100879.91;6277927;20;3547236;-41
2021/10/19 10:48:42;;;;;;;;;17.33;14.00;;;;;15.22;56.36;100871.34;6278845;20;3538851;-40
2021/10/19 10:51:12;;;;;;;;;15.00;12.00;;;;;15.40;57.59;100870.22;6285831;20;1949221;-42
2021/10/19 10:53:45;;;;;;;;;14.00;14.00;;;;;15.46;57.35;100864.44;6282122;20;2808603;-43
2021/10/19 10:56:16;;;;;;;;;20.00;16.00;;;;;15.93;56.24;100855.13;6279042;20;2829473;-42
2021/10/19 10:58:44;;;;;;;;;17.33;15.67;;;;;15.70;56.51;100843.06;6279091;20;3542406;-42
2021/10/19 11:01:22;;;;;;;;;14.00;12.00;;;;;15.75;55.19;100842.78;6284943;20;2788805;-44
2021/10/19 11:04:05;;;;;;;;;15.00;15.00;;;;;15.98;55.75;100839.44;6282010;20;2491935;-43
2021/10/19 11:06:40;;;;;;;;;16.50;14.50;;;;;16.05;55.14;100839.03;6285361;20;2813937;-42
2021/10/19 11:09:16;;;;;;;;;15.00;14.00;;;;;16.18;54.67;100834.53;6277536;20;3524250;-42